Time;durP1;ratioP1;P1;durP2;ratioP2;P2;SDS_P1;SDS_P2;PMS_P1;PMS_P2;Temp;Humidity;BMP_temperature;BMP_pressure;BME280_temperature;BME280_humidity;BME280_pressure;Samples;Min_cycle;Max_cycle;Signal;HPM_P1;HPM_P2
2022/01/19 00:02:05;;;;;;;36.25;17.85;;;;;;;-146.48;100.00;43691.56;5300924;28;20048;-69
2022/01/19 00:04:37;;;;;;;39.83;19.10;;;;;;;-146.48;100.00;43689.56;5302789;28;20036;-69
2022/01/19 00:07:09;;;;;;;38.10;17.63;;;;;;;-146.48;100.00;43767.38;5306064;28;20084;-67
2022/01/19 00:09:40;;;;;;;36.53;17.67;;;;;;;-146.48;100.00;43883.13;5304635;28;20485;-67
2022/01/19 00:12:11;;;;;;;35.17;17.58;;;;;;;-146.48;100.00;43938.97;5306125;28;20020;-67
2022/01/19 00:14:42;;;;;;;33.85;16.85;;;;;;;-146.48;100.00;43915.03;5305777;28;20028;-67
2022/01/19 00:17:14;;;;;;;33.95;18.60;;;;;;;-146.48;100.00;43919.03;5305111;28;20044;-67
2022/01/19 00:19:45;;;;;;;34.83;17.50;;;;;;;-146.48;100.00;43911.03;5305377;28;20024;-67
2022/01/19 00:22:16;;;;;;;37.28;17.35;;;;;;;-146.48;100.00;43921.03;5305429;28;20023;-67
2022/01/19 00:24:47;;;;;;;39.67;16.87;;;;;;;-146.48;100.00;43954.94;5304353;28;20128;-67
2022/01/19 00:27:19;;;;;;;34.67;16.30;;;;;;;-146.48;100.00;44062.72;5305790;28;20047;-67
2022/01/19 00:29:51;;;;;;;27.60;16.67;;;;;;;-146.48;100.00;43994.84;5304300;28;20040;-67
2022/01/19 00:32:24;;;;;;;31.77;16.20;;;;;;;-146.48;100.00;44044.75;5305689;28;20039;-68
2022/01/19 00:34:55;;;;;;;36.97;17.88;;;;;;;-146.48;100.00;44038.75;5305166;28;20047;-67
2022/01/19 00:37:27;;;;;;;40.13;18.37;;;;;;;-146.48;100.00;44034.78;5304790;28;20025;-67
2022/01/19 00:39:58;;;;;;;45.17;19.00;;;;;;;-146.48;100.00;44010.81;5305010;28;20103;-67
2022/01/19 00:42:29;;;;;;;46.00;21.83;;;;;;;-146.48;100.00;43986.88;5305356;28;20028;-68
2022/01/19 00:45:01;;;;;;;67.33;24.80;;;;;;;-146.48;100.00;44082.66;5303914;28;20459;-67
2022/01/19 00:47:32;;;;;;;48.93;21.63;;;;;;;-146.48;100.00;44172.47;5305386;28;20035;-67
2022/01/19 00:50:05;;;;;;;47.55;22.08;;;;;;;-146.48;100.00;44182.44;5304880;28;20364;-67
2022/01/19 00:52:37;;;;;;;50.17;20.58;;;;;;;-146.48;100.00;44214.38;5304076;28;20020;-68
2022/01/19 00:55:10;;;;;;;42.40;19.70;;;;;;;-146.48;100.00;44272.25;5305064;28;20379;-67
2022/01/19 00:57:41;;;;;;;80.72;24.13;;;;;;;-146.48;100.00;44156.50;5303790;28;20024;-67
2022/01/19 01:00:17;;;;;;;75.83;24.33;;;;;;;-146.48;100.00;44240.31;5305353;28;20019;-66
2022/01/19 01:02:48;;;;;;;86.03;24.70;;;;;;;-146.48;100.00;44230.34;5304557;28;20020;-68
2022/01/19 01:05:21;;;;;;;113.23;25.10;;;;;;;-146.48;100.00;44308.16;5304349;28;20223;-67
2022/01/19 01:07:52;;;;;;;104.03;24.50;;;;;;;-146.48;100.00;44276.25;5304397;28;20032;-68
2022/01/19 01:10:24;;;;;;;114.37;24.23;;;;;;;-146.48;100.00;44310.16;5305170;28;20028;-67
2022/01/19 01:13:06;;;;;;;127.60;24.90;;;;;;;-146.48;100.00;44244.31;5303607;28;20052;-67
2022/01/19 01:15:49;;;;;;;94.73;22.80;;;;;;;-146.48;100.00;44254.28;5303864;28;20052;-68
2022/01/19 01:18:20;;;;;;;201.10;28.40;;;;;;;-146.48;100.00;44324.13;5304506;28;20522;-67
2022/01/19 01:20:54;;;;;;;276.87;31.17;;;;;;;-146.48;100.00;44286.22;5303520;28;20100;-68
2022/01/19 01:23:27;;;;;;;194.17;30.70;;;;;;;-146.48;100.00;44294.19;5304548;28;20024;-67
2022/01/19 01:25:59;;;;;;;220.60;32.57;;;;;;;-146.48;100.00;44134.53;5303330;28;20288;-68
2022/01/19 01:28:30;;;;;;;247.30;33.70;;;;;;;-146.48;100.00;43931.00;5304536;28;20107;-68
2022/01/19 01:31:03;;;;;;;217.80;28.87;;;;;;;-146.48;100.00;43956.94;5303870;28;20051;-68
2022/01/19 01:33:35;;;;;;;229.73;29.90;;;;;;;-146.48;100.00;44100.63;5303720;28;20433;-68
2022/01/19 01:36:07;;;;;;;195.47;31.03;;;;;;;-146.48;100.00;44148.53;5303708;28;20042;-68
2022/01/19 01:38:38;;;;;;;268.93;34.83;;;;;;;-146.48;100.00;44158.50;5303667;28;20428;-68
2022/01/19 01:41:13;;;;;;;196.97;32.57;;;;;;;-146.48;100.00;44230.34;5303432;28;20039;-68
2022/01/19 01:43:45;;;;;;;88.20;24.93;;;;;;;-146.48;100.00;44384.00;5303800;28;20340;-67
2022/01/19 01:46:32;;;;;;;55.63;25.47;;;;;;;-146.48;100.00;44491.78;5304140;28;20074;-67
2022/01/19 01:49:04;;;;;;;60.27;25.83;;;;;;;-146.48;100.00;44539.69;5302577;28;20020;-67
2022/01/19 01:54:25;;;;;;;63.77;27.03;;;;;;;-146.48;100.00;44575.59;5303684;28;20043;-67
2022/01/19 01:56:57;;;;;;;45.53;23.13;;;;;;;-146.48;100.00;44695.34;5303099;28;20040;-68
2022/01/19 01:59:31;;;;;;;46.20;23.90;;;;;;;-146.48;100.00;44635.47;5304093;28;20391;-67
2022/01/19 02:02:03;;;;;;;42.73;22.57;;;;;;;-146.48;100.00;44729.28;5302283;28;20016;-68
2022/01/19 02:04:40;;;;;;;48.30;24.17;;;;;;;-146.48;100.00;44871.00;5303734;28;20097;-68
2022/01/19 02:07:39;;;;;;;56.17;24.20;;;;;;;-146.48;100.00;44948.84;5303681;28;20031;-68
2022/01/19 02:21:39;;;;;;;57.30;25.80;;;;;;;-146.48;100.00;45156.44;5303741;28;20036;-67
2022/01/19 02:24:17;;;;;;;52.10;25.93;;;;;;;-146.48;100.00;45200.34;5303000;28;20032;-67
2022/01/19 02:40:38;;;;;;;50.27;25.07;;;;;;;-146.48;100.00;45124.50;5302645;28;20103;-68
2022/01/19 02:43:20;;;;;;;46.03;23.77;;;;;;;-146.48;100.00;45134.47;5302184;28;20095;-67
2022/01/19 02:51:31;;;;;;;40.77;21.77;;;;;;;-146.48;100.00;45308.13;5302481;28;20519;-67
2022/01/19 02:54:02;;;;;;;45.27;24.10;;;;;;;-146.48;100.00;45084.56;5302229;28;20107;-67
2022/01/19 02:56:37;;;;;;;43.00;23.00;;;;;;;-146.48;100.00;45120.50;5302803;28;20035;-67
2022/01/19 02:59:17;;;;;;;45.87;22.63;;;;;;;-146.48;100.00;45146.44;5302002;28;20028;-67
2022/01/19 03:10:20;;;;;;;45.70;22.87;;;;;;;-146.48;100.00;45384.00;5302659;28;20419;-68
2022/01/19 03:12:52;;;;;;;41.40;22.70;;;;;;;-146.48;100.00;45384.00;5301134;28;20032;-67
2022/01/19 03:15:23;;;;;;;43.80;22.30;;;;;;;-146.48;100.00;45352.03;5302736;28;20083;-67
2022/01/19 03:17:58;;;;;;;43.73;22.83;;;;;;;-146.48;100.00;45296.16;5302075;28;20081;-67
2022/01/19 03:20:30;;;;;;;42.77;22.00;;;;;;;-146.48;100.00;45312.13;5301844;28;20024;-67
2022/01/19 03:23:03;;;;;;;54.77;25.53;;;;;;;-146.48;100.00;45244.25;5301915;28;20036;-68
2022/01/19 03:25:37;;;;;;;56.53;26.93;;;;;;;-146.48;100.00;45228.28;5301650;28;20034;-68
2022/01/19 03:28:09;;;;;;;54.13;26.60;;;;;;;-146.48;100.00;45112.50;5302566;28;20127;-68
2022/01/19 03:30:41;;;;;;;62.47;28.00;;;;;;;-146.48;100.00;45144.44;5301816;28;20119;-68
2022/01/19 03:33:13;;;;;;;55.30;27.77;;;;;;;-146.48;100.00;45170.41;5301675;28;20013;-68
2022/01/19 03:35:45;;;;;;;59.90;27.90;;;;;;;-146.48;100.00;45090.56;5301658;28;20032;-68
2022/01/19 03:38:17;;;;;;;55.90;27.80;;;;;;;-146.48;100.00;45038.66;5302579;28;20024;-68
2022/01/19 03:40:49;;;;;;;57.50;28.17;;;;;;;-146.48;100.00;45044.66;5304387;28;20077;-68
2022/01/19 03:43:20;;;;;;;59.67;27.97;;;;;;;-146.48;100.00;45076.59;5306676;28;20028;-68
2022/01/19 03:45:53;;;;;;;62.10;28.73;;;;;;;-146.48;100.00;45046.63;5306145;28;20024;-68
2022/01/19 03:51:06;;;;;;;60.90;28.73;;;;;;;-146.48;100.00;45066.59;5306208;28;20043;-67
2022/01/19 03:53:39;;;;;;;65.13;30.33;;;;;;;-146.48;100.00;45052.63;5304975;28;20043;-68
2022/01/19 03:56:10;;;;;;;68.50;30.43;;;;;;;-146.48;100.00;44938.84;5306308;28;20028;-68
2022/01/19 03:58:42;;;;;;;66.60;30.53;;;;;;;-146.48;100.00;44936.84;5305652;28;20024;-68
2022/01/19 04:01:13;;;;;;;64.80;30.33;;;;;;;-146.48;100.00;44896.94;5305790;28;20024;-68
2022/01/19 04:06:54;;;;;;;63.87;28.80;;;;;;;-146.48;100.00;44910.91;5306600;28;20071;-68
2022/01/19 04:09:29;;;;;;;55.53;27.10;;;;;;;-146.48;100.00;44841.06;5305699;28;20382;-67
2022/01/19 04:12:00;;;;;;;66.87;28.37;;;;;;;-146.48;100.00;44878.97;5305274;28;20028;-67
2022/01/19 04:14:32;;;;;;;60.77;28.90;;;;;;;-146.48;100.00;44894.94;5305328;28;20359;-67
2022/01/19 04:17:12;;;;;;;57.97;28.80;;;;;;;-146.48;100.00;44888.94;5305300;28;20020;-67
2022/01/19 04:19:46;;;;;;;56.37;27.43;;;;;;;-146.48;100.00;44807.13;5305248;28;20030;-67
2022/01/19 04:22:20;;;;;;;60.43;28.53;;;;;;;-146.48;100.00;44699.34;5305149;28;20081;-67
2022/01/19 04:24:51;;;;;;;60.13;29.57;;;;;;;-146.48;100.00;44673.41;5305355;28;20499;-67
2022/01/19 04:30:31;;;;;;;77.10;31.83;;;;;;;-146.48;100.00;44693.34;5304417;28;20081;-68
2022/01/19 04:35:33;;;;;;;62.03;30.03;;;;;;;-146.48;100.00;44717.31;5305676;28;20040;-68
2022/01/19 04:44:22;;;;;;;70.27;33.23;;;;;;;-146.48;100.00;44793.16;5304425;28;20033;-68
2022/01/19 05:03:56;;;;;;;67.83;30.70;;;;;;;-146.48;100.00;44198.41;5304855;28;20036;-68
2022/01/19 05:06:30;;;;;;;72.40;29.53;;;;;;;-146.48;100.00;44048.75;5305207;28;20040;-68
2022/01/19 05:09:25;;;;;;;70.90;30.77;;;;;;;-146.48;100.00;43849.19;5304343;28;20420;-68
2022/01/19 05:14:43;;;;;;;65.50;28.20;;;;;;;-146.48;100.00;43509.97;5304347;28;20032;-69
2022/01/19 05:17:14;;;;;;;63.20;29.90;;;;;;;-146.48;100.00;43436.16;5304953;28;20107;-67
2022/01/19 05:19:45;;;;;;;72.20;31.37;;;;;;;-146.48;100.00;43398.25;5303406;28;20035;-68
2022/01/19 05:22:17;;;;;;;65.70;30.43;;;;;;;-146.48;100.00;43354.34;5304667;28;20024;-68
2022/01/19 05:24:48;;;;;;;65.70;31.13;;;;;;;-146.48;100.00;43370.31;5303653;28;20069;-68
2022/01/19 05:27:21;;;;;;;61.37;29.73;;;;;;;-146.48;100.00;43382.28;5304518;28;20042;-68
2022/01/19 05:29:53;;;;;;;61.10;29.27;;;;;;;-146.48;100.00;43386.28;5303952;28;20022;-68
2022/01/19 05:32:24;;;;;;;61.07;29.20;;;;;;;-146.48;100.00;43404.22;5303650;28;20028;-68
2022/01/19 05:34:55;;;;;;;62.10;31.00;;;;;;;-146.48;100.00;43412.22;5303913;28;20031;-68
2022/01/19 05:37:27;;;;;;;59.97;29.67;;;;;;;-146.48;100.00;43368.31;5304222;28;20024;-67
2022/01/19 05:39:58;;;;;;;56.97;30.53;;;;;;;-146.48;100.00;43332.41;5303056;28;20384;-68
2022/01/19 05:42:29;;;;;;;62.30;31.03;;;;;;;-146.48;100.00;43386.28;5304322;28;20027;-68
2022/01/19 05:45:01;;;;;;;49.20;24.10;;;;;;;-146.48;100.00;43268.56;5303397;28;20038;-68
2022/01/19 05:47:33;;;;;;;54.37;28.40;;;;;;;-146.48;100.00;43154.84;5303157;28;20032;-68
2022/01/19 05:50:05;;;;;;;60.10;29.00;;;;;;;-146.48;100.00;43202.72;5303542;28;20394;-68
2022/01/19 05:52:36;;;;;;;53.83;28.20;;;;;;;-146.48;100.00;43176.78;5304073;28;20028;-69
2022/01/19 05:55:08;;;;;;;52.00;27.87;;;;;;;-146.48;100.00;43240.63;5302851;28;20032;-67
2022/01/19 05:57:39;;;;;;;53.60;29.03;;;;;;;-146.48;100.00;43112.94;5303180;28;20027;-68
2022/01/19 06:00:11;;;;;;;56.40;27.67;;;;;;;-146.48;100.00;43134.88;5303029;28;20036;-68
2022/01/19 06:02:42;;;;;;;47.70;26.40;;;;;;;-146.48;100.00;43093.00;5302983;28;20391;-69
2022/01/19 06:05:14;;;;;;;54.20;27.63;;;;;;;-146.48;100.00;43152.84;5303492;28;20048;-67
2022/01/19 06:07:47;;;;;;;51.50;27.80;;;;;;;-146.48;100.00;43100.97;5302270;28;20036;-67
2022/01/19 06:13:10;;;;;;;49.03;27.57;;;;;;;-146.48;100.00;43148.84;5304289;28;20036;-67
2022/01/19 06:15:42;;;;;;;49.80;26.20;;;;;;;-146.48;100.00;43025.16;5302202;28;20035;-68
2022/01/19 06:18:16;;;;;;;45.40;25.30;;;;;;;-146.48;100.00;43039.13;5303533;28;20035;-68
2022/01/19 06:20:48;;;;;;;48.27;27.67;;;;;;;-146.48;100.00;42987.25;5302825;28;20028;-68
2022/01/19 06:23:19;;;;;;;44.87;26.63;;;;;;;-146.48;100.00;42939.38;5302808;28;20388;-67
2022/01/19 06:25:51;;;;;;;45.80;26.77;;;;;;;-146.48;100.00;42857.56;5302893;28;20032;-68
2022/01/19 06:28:22;;;;;;;46.43;26.27;;;;;;;-146.48;100.00;42875.53;5302432;28;20099;-67
2022/01/19 06:30:53;;;;;;;45.33;26.07;;;;;;;-146.48;100.00;42895.47;5302705;28;20030;-67
2022/01/19 06:33:25;;;;;;;45.10;25.90;;;;;;;-146.48;100.00;42917.44;5303139;28;20472;-67
2022/01/19 06:35:56;;;;;;;45.07;25.53;;;;;;;-146.48;100.00;42919.41;5301769;28;20057;-67
2022/01/19 06:38:28;;;;;;;44.47;25.35;;;;;;;-146.48;100.00;42857.56;5303176;28;20107;-67
2022/01/19 06:41:00;;;;;;;43.73;25.87;;;;;;;-146.48;100.00;42825.66;5302732;28;20035;-69
2022/01/19 06:43:31;;;;;;;40.70;24.87;;;;;;;-146.48;100.00;42847.59;5302417;28;20024;-68
2022/01/19 06:46:02;;;;;;;40.13;23.67;;;;;;;-146.48;100.00;42917.44;5302286;28;20051;-68
2022/01/19 06:48:34;;;;;;;42.10;23.80;;;;;;;-146.48;100.00;42825.66;5303133;28;20361;-67
2022/01/19 06:51:05;;;;;;;49.67;24.93;;;;;;;-146.48;100.00;42785.75;5299922;28;20025;-67
2022/01/19 06:53:36;;;;;;;40.43;23.43;;;;;;;-146.48;100.00;42779.78;5301327;28;20028;-67
2022/01/19 06:56:08;;;;;;;39.77;23.63;;;;;;;-146.48;100.00;42783.75;5301553;28;20441;-68
2022/01/19 06:58:39;;;;;;;37.07;24.37;;;;;;;-146.48;100.00;42761.81;5300560;28;20107;-67
2022/01/19 07:01:10;;;;;;;38.20;22.00;;;;;;;-146.48;100.00;42676.03;5296550;28;20039;-67
2022/01/19 07:03:42;;;;;;;38.30;22.60;;;;;;;-146.48;100.00;42690.00;5299831;28;20024;-67
2022/01/19 07:06:14;;;;;;;40.67;24.03;;;;;;;-146.48;100.00;42721.91;5300537;28;20048;-67
2022/01/19 07:08:45;;;;;;;40.90;22.93;;;;;;;-146.48;100.00;42670.06;5300956;28;20467;-68
2022/01/19 07:11:17;;;;;;;42.23;24.17;;;;;;;-146.48;100.00;42751.84;5300573;28;20045;-68
2022/01/19 07:13:48;;;;;;;39.97;24.10;;;;;;;-146.48;100.00;42725.91;5299871;28;20106;-68
2022/01/19 07:16:20;;;;;;;40.17;22.73;;;;;;;-146.48;100.00;42620.19;5301063;28;20046;-68
2022/01/19 07:18:51;;;;;;;38.27;23.40;;;;;;;-146.48;100.00;42656.09;5299536;28;20038;-68
2022/01/19 07:21:22;;;;;;;40.73;23.67;;;;;;;-146.48;100.00;42640.13;5298364;28;20447;-69
2022/01/19 07:23:54;;;;;;;36.63;22.43;;;;;;;-146.48;100.00;42536.41;5298617;28;20781;-67
2022/01/19 07:26:25;;;;;;;39.33;23.37;;;;;;;-146.48;100.00;42598.25;5300034;28;20542;-67
2022/01/19 07:28:56;;;;;;;36.70;22.13;;;;;;;-146.48;100.00;42598.25;5300584;28;20028;-67
2022/01/19 07:31:28;;;;;;;34.80;21.17;;;;;;;-146.48;100.00;42640.13;5300390;28;20025;-67
2022/01/19 07:33:59;;;;;;;33.60;20.37;;;;;;;-146.48;100.00;42680.03;5300869;28;20016;-68
2022/01/19 07:36:30;;;;;;;38.40;22.83;;;;;;;-146.48;100.00;42572.31;5301127;28;20116;-68
2022/01/19 07:39:03;;;;;;;37.40;22.77;;;;;;;-146.48;100.00;42618.19;5299180;28;20024;-69
2022/01/19 07:41:34;;;;;;;34.37;20.77;;;;;;;-146.48;100.00;42664.06;5300777;28;20050;-68
2022/01/19 07:44:06;;;;;;;34.80;20.35;;;;;;;-146.48;100.00;42592.25;5300864;28;20092;-68
2022/01/19 07:46:37;;;;;;;37.03;21.90;;;;;;;-146.48;100.00;42522.44;5300015;28;20020;-69
2022/01/19 07:49:08;;;;;;;33.60;20.40;;;;;;;-146.48;100.00;42438.66;5301320;28;20021;-69
2022/01/19 07:51:40;;;;;;;35.00;21.30;;;;;;;-146.48;100.00;42494.50;5300566;28;20028;-68
2022/01/19 07:54:12;;;;;;;34.47;21.07;;;;;;;-146.48;100.00;42546.38;5300129;28;20028;-67
2022/01/19 07:56:43;;;;;;;32.10;20.93;;;;;;;-146.48;100.00;42466.59;5300552;28;20035;-67
2022/01/19 07:59:15;;;;;;;35.42;22.02;;;;;;;-146.48;100.00;42488.53;5301231;28;20020;-67
2022/01/19 08:01:47;;;;;;;32.80;21.60;;;;;;;-146.48;100.00;42446.63;5299602;28;20494;-67
2022/01/19 08:04:18;;;;;;;36.00;23.10;;;;;;;-146.48;100.00;42472.56;5300266;28;20115;-68
2022/01/19 08:06:54;;;;;;;32.97;21.25;;;;;;;-146.48;100.00;42414.72;5299414;28;20028;-67
2022/01/19 08:09:25;;;;;;;34.05;20.90;;;;;;;-146.48;100.00;42462.59;5301421;28;20352;-68
2022/01/19 08:11:57;;;;;;;33.70;22.40;;;;;;;-146.48;100.00;42470.56;5300351;28;20032;-67
2022/01/19 08:14:29;;;;;;;35.50;21.90;;;;;;;-146.48;100.00;42492.50;5299968;28;20082;-68
2022/01/19 08:17:00;;;;;;;32.25;21.45;;;;;;;-146.48;100.00;42446.63;5299534;28;20547;-68
2022/01/19 08:19:31;;;;;;;34.95;20.98;;;;;;;-146.48;100.00;42390.78;5300777;28;20073;-68
2022/01/19 08:22:03;;;;;;;34.30;21.83;;;;;;;-146.48;100.00;42424.69;5299690;28;20077;-68
2022/01/19 08:24:34;;;;;;;37.30;21.90;;;;;;;-146.48;100.00;42410.72;5300807;28;20035;-68
2022/01/19 08:27:05;;;;;;;33.63;22.35;;;;;;;-146.48;100.00;42378.81;5303448;28;20039;-68
2022/01/19 08:29:37;;;;;;;31.33;20.73;;;;;;;-146.48;100.00;42406.75;5302954;28;20069;-69
2022/01/19 08:32:09;;;;;;;32.17;22.13;;;;;;;-146.48;100.00;42275.09;5304560;28;20100;-68
2022/01/19 08:34:40;;;;;;;33.70;22.27;;;;;;;-146.48;100.00;42267.13;5303877;28;20114;-68
2022/01/19 08:37:15;;;;;;;36.55;21.83;;;;;;;-146.48;100.00;42237.19;5303825;28;20086;-68
2022/01/19 08:39:46;;;;;;;41.05;22.17;;;;;;;-146.48;100.00;42269.09;5303600;28;20055;-68
2022/01/19 08:42:17;;;;;;;41.72;22.17;;;;;;;-146.48;100.00;42289.06;5303155;28;20423;-68
2022/01/19 08:44:49;;;;;;;34.03;21.15;;;;;;;-146.48;100.00;42229.22;5303407;28;20379;-68
2022/01/19 08:47:21;;;;;;;31.98;21.45;;;;;;;-146.48;100.00;42313.00;5304298;28;20349;-67
2022/01/19 08:49:53;;;;;;;32.00;21.83;;;;;;;-146.48;100.00;42251.16;5303334;28;20028;-68
2022/01/19 08:52:24;;;;;;;32.45;21.27;;;;;;;-146.48;100.00;42183.34;5303985;28;20035;-67
2022/01/19 08:54:55;;;;;;;34.55;21.80;;;;;;;-146.48;100.00;42183.34;5303433;28;20081;-68
2022/01/19 08:57:27;;;;;;;31.88;20.25;;;;;;;-146.48;100.00;42225.22;5302753;28;20576;-68
2022/01/19 08:59:58;;;;;;;32.58;21.88;;;;;;;-146.48;100.00;42271.09;5303811;28;20079;-67
2022/01/19 09:02:29;;;;;;;31.77;21.40;;;;;;;-146.48;100.00;42195.31;5304028;28;20038;-67
2022/01/19 09:05:02;;;;;;;31.95;21.20;;;;;;;-146.48;100.00;42169.38;5303134;28;20048;-67
2022/01/19 09:07:34;;;;;;;32.35;20.63;;;;;;;-146.48;100.00;42111.53;5305072;28;20036;-68
2022/01/19 09:10:08;;;;;;;31.17;21.15;;;;;;;-146.48;100.00;42055.69;5303775;28;20031;-67
2022/01/19 09:12:40;;;;;;;29.92;19.25;;;;;;;-146.48;100.00;41967.94;5304474;28;20028;-68
2022/01/19 09:15:11;;;;;;;33.30;21.20;;;;;;;-146.48;100.00;42059.69;5305008;28;20073;-67
2022/01/19 09:17:43;;;;;;;29.13;19.83;;;;;;;-146.48;100.00;42085.59;5303318;28;20039;-67
2022/01/19 09:20:16;;;;;;;31.10;19.80;;;;;;;-146.48;100.00;41947.97;5304676;28;20376;-67
2022/01/19 09:22:49;;;;;;;31.08;20.30;;;;;;;-146.48;100.00;41844.28;5304205;28;20400;-67
2022/01/19 09:25:20;;;;;;;32.83;19.80;;;;;;;-146.48;100.00;41752.53;5304075;28;20024;-70
2022/01/19 09:27:52;;;;;;;28.27;19.83;;;;;;;-146.48;100.00;41724.59;5304037;28;20111;-69
2022/01/19 09:30:24;;;;;;;31.15;20.15;;;;;;;-146.48;100.00;41674.75;5304641;28;20039;-69
2022/01/19 09:33:06;;;;;;;29.17;19.73;;;;;;;-146.48;100.00;41596.97;5303197;28;20387;-69
2022/01/19 09:38:36;;;;;;;27.25;19.58;;;;;;;-146.48;100.00;41748.53;5303056;28;20115;-68
2022/01/19 09:41:07;;;;;;;29.45;18.88;;;;;;;-146.48;100.00;41734.59;5303911;28;20028;-68
2022/01/19 09:43:40;;;;;;;27.85;18.63;;;;;;;-146.48;100.00;41626.88;5303850;28;20357;-68
2022/01/19 09:46:12;;;;;;;27.98;19.58;;;;;;;-146.48;100.00;41620.91;5303463;28;20387;-68
2022/01/19 09:48:43;;;;;;;29.20;19.70;;;;;;;-146.48;100.00;41555.09;5303461;28;20016;-68
2022/01/19 09:51:15;;;;;;;28.58;20.45;;;;;;;-146.48;100.00;41515.19;5304280;28;20400;-69
2022/01/19 09:53:47;;;;;;;27.55;18.60;;;;;;;-146.48;100.00;41539.13;5302976;28;20017;-69
2022/01/19 09:56:20;;;;;;;30.25;19.95;;;;;;;-146.48;100.00;41547.13;5304090;28;20055;-69
2022/01/19 09:58:51;;;;;;;27.60;19.15;;;;;;;-146.48;100.00;41616.91;5301899;28;20103;-69
2022/01/19 10:01:25;;;;;;;25.98;19.00;;;;;;;-146.48;100.00;41634.88;5301975;28;20031;-69
2022/01/19 10:03:56;;;;;;;27.25;19.48;;;;;;;-146.48;100.00;41608.94;5301867;28;20024;-69
2022/01/19 10:06:28;;;;;;;32.67;20.60;;;;;;;-146.48;100.00;41678.75;5301945;28;20482;-69
2022/01/19 10:08:59;;;;;;;28.10;19.10;;;;;;;-146.48;100.00;41606.94;5302096;28;20426;-69
2022/01/19 10:17:10;;;;;;;23.95;17.13;;;;;;;-146.48;100.00;41563.06;5301955;28;20606;-67
2022/01/19 10:19:49;;;;;;;29.13;18.40;;;;;;;-146.48;100.00;41517.19;5301811;28;20116;-68
2022/01/19 10:22:23;;;;;;;;;;;;;;;-146.48;100.00;41612.94;5302137;28;20032;-68
2022/01/19 10:25:02;;;;;;;26.58;18.85;;;;;;;-146.48;100.00;41525.19;5301493;28;19919;-67
2022/01/19 10:27:45;;;;;;;27.42;18.92;;;;;;;-146.48;100.00;41369.63;5301731;28;20032;-68
2022/01/19 10:30:23;;;;;;;29.55;20.27;;;;;;;-146.48;100.00;41293.84;5302213;28;20480;-68
2022/01/19 10:32:59;;;;;;;31.40;21.33;;;;;;;-146.48;100.00;41214.09;5301614;28;20027;-68
2022/01/19 10:35:38;;;;;;;26.75;18.48;;;;;;;-146.48;100.00;41299.81;5301440;28;20511;-68
2022/01/19 10:38:26;;;;;;;27.88;20.27;;;;;;;-146.48;100.00;41289.84;5301533;28;20036;-69
2022/01/19 10:40:57;;;;;;;25.50;19.00;;;;;;;-146.48;100.00;41186.16;5301395;28;20388;-68
2022/01/19 10:43:42;;;;;;;29.10;19.05;;;;;;;-146.48;100.00;41020.66;5301383;28;20036;-69
2022/01/19 10:46:16;;;;;;;26.75;17.38;;;;;;;-146.48;100.00;40954.84;5302065;28;20031;-67
2022/01/19 10:48:47;;;;;;;26.10;18.10;;;;;;;-146.48;100.00;40930.94;5299812;28;20032;-68
2022/01/19 10:51:20;;;;;;;25.50;18.48;;;;;;;-146.48;100.00;40825.25;5301169;28;20039;-68
2022/01/19 10:54:15;;;;;;;24.05;17.55;;;;;;;-146.48;100.00;40823.25;5301354;28;20028;-68
2022/01/19 10:56:54;;;;;;;23.77;18.13;;;;;;;-146.48;100.00;40713.59;5300371;28;20043;-68
2022/01/19 10:59:29;;;;;;;23.17;17.00;;;;;;;-146.48;100.00;40737.53;5301739;28;20020;-67
2022/01/19 11:02:03;;;;;;;23.25;17.75;;;;;;;-146.48;100.00;40711.59;5301323;28;20036;-67
2022/01/19 11:04:37;;;;;;;24.33;17.13;;;;;;;-146.48;100.00;40599.94;5300328;28;20044;-67
2022/01/19 11:07:11;;;;;;;24.67;17.33;;;;;;;-146.48;100.00;40510.22;5301617;28;20028;-67
2022/01/19 11:09:56;;;;;;;25.67;16.98;;;;;;;-146.48;100.00;40428.47;5300078;28;20020;-69
2022/01/19 11:12:31;;;;;;;26.50;18.40;;;;;;;-146.48;100.00;40458.38;5301798;28;20024;-68
2022/01/19 11:15:03;;;;;;;28.40;19.17;;;;;;;-146.48;100.00;40350.72;5301068;28;20475;-68
2022/01/19 11:17:35;;;;;;;25.55;17.00;;;;;;;-146.48;100.00;40213.16;5300116;28;20119;-68
2022/01/19 11:20:11;;;;;;;27.58;18.90;;;;;;;-146.48;100.00;40344.75;5300862;28;20016;-67
2022/01/19 11:23:01;;;;;;;28.02;19.33;;;;;;;-146.48;100.00;40344.75;5300996;28;20550;-67
2022/01/19 11:25:45;;;;;;;27.42;18.80;;;;;;;-146.48;100.00;40253.03;5300612;28;20391;-68
2022/01/19 11:28:46;;;;;;;29.13;20.45;;;;;;;-146.48;100.00;40257.03;5301420;28;20540;-68
2022/01/19 11:31:36;;;;;;;28.80;19.40;;;;;;;-146.48;100.00;40223.13;5297753;28;20032;-67
2022/01/19 11:34:07;;;;;;;25.52;18.45;;;;;;;-146.48;100.00;40191.22;5301138;28;20016;-67
2022/01/19 11:36:42;;;;;;;27.15;18.83;;;;;;;-146.48;100.00;40139.41;5300613;28;20035;-68
2022/01/19 11:39:23;;;;;;;28.35;20.05;;;;;;;-146.48;100.00;40117.47;5300408;28;20052;-67
2022/01/19 11:42:03;;;;;;;28.95;19.08;;;;;;;-146.48;100.00;40155.34;5300742;28;20085;-68
2022/01/19 11:44:35;;;;;;;29.40;20.63;;;;;;;-146.48;100.00;40089.56;5300620;28;20024;-68
2022/01/19 11:47:09;;;;;;;30.20;19.05;;;;;;;-146.48;100.00;40005.84;5300246;28;20024;-68
2022/01/19 11:49:52;;;;;;;26.48;19.33;;;;;;;-146.48;100.00;40005.84;5300459;28;20039;-68
2022/01/19 11:52:47;;;;;;;26.67;19.52;;;;;;;-146.48;100.00;40003.84;5300460;28;20028;-67
2022/01/19 11:55:24;;;;;;;30.83;20.73;;;;;;;-146.48;100.00;39888.22;5287540;28;20580;-67
2022/01/19 11:58:10;;;;;;;29.48;20.88;;;;;;;-146.48;100.00;39902.19;5299710;28;20029;-67
2022/01/19 12:00:45;;;;;;;29.15;21.08;;;;;;;-146.48;100.00;39858.31;5301063;28;20032;-68
2022/01/19 12:03:21;;;;;;;29.25;21.40;;;;;;;-146.48;100.00;39824.44;5305317;28;20024;-68
2022/01/19 12:05:53;;;;;;;30.15;20.90;;;;;;;-146.48;100.00;39852.34;5303622;28;20040;-69
2022/01/19 12:08:30;;;;;;;32.38;22.95;;;;;;;-146.48;100.00;39818.44;5304901;28;20048;-69
2022/01/19 12:11:15;;;;;;;33.30;22.63;;;;;;;-146.48;100.00;39806.50;5304111;28;20036;-69
2022/01/19 12:17:07;;;;;;;35.30;23.83;;;;;;;-146.48;100.00;39806.50;5304420;28;20472;-69
2022/01/19 12:19:42;;;;;;;28.95;18.90;;;;;;;-146.48;100.00;39746.69;5304506;28;20069;-68
2022/01/19 12:22:22;;;;;;;33.80;25.13;;;;;;;-146.48;100.00;39692.88;5303582;28;20020;-68
2022/01/19 12:25:06;;;;;;;33.55;24.83;;;;;;;-146.48;100.00;39617.13;5304218;28;20032;-69
2022/01/19 12:27:41;;;;;;;37.15;26.58;;;;;;;-146.48;100.00;39619.13;5303862;28;20024;-69
2022/01/19 12:30:17;;;;;;;37.28;25.58;;;;;;;-146.48;100.00;39587.22;5304696;28;20111;-69
2022/01/19 12:32:49;;;;;;;36.47;24.52;;;;;;;-146.48;100.00;39455.66;5304089;28;20459;-69
2022/01/19 12:35:24;;;;;;;36.97;26.63;;;;;;;-146.48;100.00;39310.16;5303653;28;20498;-68
2022/01/19 12:37:56;;;;;;;37.42;26.65;;;;;;;-146.48;100.00;39310.16;5305528;28;20046;-68
2022/01/19 12:40:40;;;;;;;37.30;26.25;;;;;;;-146.48;100.00;39200.53;5305869;28;20361;-69
2022/01/19 12:43:33;;;;;;;38.97;27.60;;;;;;;-146.48;100.00;39238.41;5304874;28;20099;-68
2022/01/19 12:46:08;;;;;;;41.08;26.70;;;;;;;-146.48;100.00;39134.78;5305074;28;20098;-68
2022/01/19 12:48:47;;;;;;;36.65;25.65;;;;;;;-146.48;100.00;39043.09;5304213;28;20028;-68
2022/01/19 12:51:45;;;;;;;40.13;26.90;;;;;;;-146.48;100.00;39043.09;5305514;28;20052;-68
2022/01/19 12:54:25;;;;;;;40.78;27.45;;;;;;;-146.48;100.00;38935.47;5301330;28;20536;-68
2022/01/19 12:57:03;;;;;;;34.35;23.88;;;;;;;-146.48;100.00;38857.75;5303829;28;20032;-67
2022/01/19 12:59:35;;;;;;;38.20;25.83;;;;;;;-146.48;100.00;38829.84;5305399;28;20020;-67